Time;durP1;ratioP1;P1;durP2;ratioP2;P2;SDS_P1;SDS_P2;PMS_P1;PMS_P2;Temp;Humidity;BMP_temperature;BMP_pressure;BME280_temperature;BME280_humidity;BME280_pressure;Samples;Min_cycle;Max_cycle;Signal;HPM_P1;HPM_P2
2023/05/16 00:01:17;;;;;;;2.67;2.15;;;21.90;38.80;;;;;;5056092;28;20040;-71
2023/05/16 00:03:42;;;;;;;2.10;1.90;;;21.90;38.90;;;;;;5056098;28;20024;-71
2023/05/16 00:06:08;;;;;;;1.85;1.75;;;21.80;38.90;;;;;;5054859;28;20466;-71
2023/05/16 00:08:34;;;;;;;2.30;2.00;;;21.90;39.00;;;;;;5056239;28;20103;-71
2023/05/16 00:11:00;;;;;;;4.03;1.90;;;21.90;39.00;;;;;;5054408;28;20025;-71
2023/05/16 00:13:26;;;;;;;2.17;2.00;;;21.90;39.00;;;;;;5055635;28;20033;-71
2023/05/16 00:15:54;;;;;;;2.28;2.08;;;21.80;38.90;;;;;;5054483;28;20025;-71
2023/05/16 00:18:21;;;;;;;1.85;1.75;;;21.80;38.90;;;;;;5055835;28;20071;-71
2023/05/16 00:20:47;;;;;;;2.90;2.13;;;21.80;39.60;;;;;;5054952;28;20037;-71
2023/05/16 00:23:14;;;;;;;2.22;2.00;;;21.70;39.00;;;;;;5055757;28;20036;-71
2023/05/16 00:25:39;;;;;;;2.38;2.17;;;21.70;39.00;;;;;;5055126;28;20116;-71
2023/05/16 00:28:06;;;;;;;3.15;2.30;;;21.70;39.10;;;;;;5055751;28;20068;-71
2023/05/16 00:30:31;;;;;;;2.15;1.95;;;21.70;39.10;;;;;;5055502;28;20475;-71
2023/05/16 00:32:57;;;;;;;2.58;2.00;;;21.70;39.10;;;;;;5055235;28;20100;-71
2023/05/16 00:35:22;;;;;;;2.00;1.90;;;21.70;39.20;;;;;;5053843;28;20025;-71
2023/05/16 00:37:49;;;;;;;2.67;2.10;;;21.70;39.20;;;;;;5055535;28;20040;-71
2023/05/16 00:40:15;;;;;;;2.28;2.00;;;21.70;39.20;;;;;;5055009;28;20485;-71
2023/05/16 00:42:41;;;;;;;2.15;1.88;;;21.70;39.90;;;;;;5054012;28;20032;-71
2023/05/16 00:45:08;;;;;;;2.13;1.98;;;21.60;39.30;;;;;;5055264;28;20374;-71
2023/05/16 00:47:34;;;;;;;2.10;1.90;;;21.60;39.40;;;;;;5055099;28;20099;-71
2023/05/16 00:49:59;;;;;;;2.95;2.38;;;21.50;39.40;;;;;;5055051;28;20041;-71
2023/05/16 00:52:25;;;;;;;2.40;2.20;;;21.50;39.50;;;;;;5055269;28;20357;-71
2023/05/16 00:54:51;;;;;;;2.28;2.00;;;21.50;39.60;;;;;;5055037;28;20116;-71
2023/05/16 00:57:17;;;;;;;2.38;2.17;;;21.40;40.20;;;;;;5055247;28;20108;-71
2023/05/16 00:59:45;;;;;;;2.80;2.00;;;21.40;39.60;;;;;;5053658;28;20047;-72
2023/05/16 01:02:11;;;;;;;2.63;2.22;;;21.40;39.70;;;;;;5053892;28;20031;-71
2023/05/16 01:04:38;;;;;;;2.67;2.10;;;21.30;39.80;;;;;;5053348;28;20120;-72
2023/05/16 01:07:04;;;;;;;2.45;2.17;;;21.30;39.90;;;;;;5054557;28;20055;-71
2023/05/16 01:09:30;;;;;;;2.20;2.00;;;21.20;39.90;;;;;;5054684;28;20459;-71
2023/05/16 01:12:08;;;;;;;2.35;2.15;;;21.20;40.00;;;;;;5053701;28;20115;-71
2023/05/16 01:15:01;;;;;;;2.72;2.08;;;21.10;40.00;;;;;;5054574;28;20105;-71
2023/05/16 01:17:52;;;;;;;2.58;2.15;;;21.10;40.20;;;;;;5054589;28;20027;-71
2023/05/16 01:20:35;;;;;;;2.40;2.20;;;21.10;40.30;;;;;;5053405;28;20434;-71
2023/05/16 01:23:04;;;;;;;3.58;2.10;;;21.00;40.30;;;;;;5054479;28;20017;-71
2023/05/16 01:25:44;;;;;;;2.17;2.08;;;21.00;40.30;;;;;;5053267;28;20098;-71
2023/05/16 01:28:12;;;;;;;4.53;2.22;;;20.90;40.30;;;;;;5054438;28;20021;-71
2023/05/16 01:30:40;;;;;;;3.35;2.40;;;20.90;40.40;;;;;;5054085;28;20044;-71
2023/05/16 01:33:06;;;;;;;2.45;2.10;;;20.90;40.40;;;;;;5053478;28;20112;-71
2023/05/16 01:35:32;;;;;;;2.50;2.30;;;20.90;40.50;;;;;;5054273;28;20021;-71
2023/05/16 01:38:25;;;;;;;2.80;2.50;;;20.80;40.50;;;;;;5054200;28;20017;-71
2023/05/16 01:40:57;;;;;;;3.08;2.47;;;20.80;40.70;;;;;;5054358;28;20041;-71
2023/05/16 01:43:45;;;;;;;3.50;2.78;;;20.80;40.60;;;;;;5053956;28;20530;-71
2023/05/16 01:46:14;;;;;;;3.42;2.80;;;20.70;40.80;;;;;;5054185;28;20032;-71
2023/05/16 01:48:57;;;;;;;3.08;2.63;;;20.70;40.60;;;;;;5052636;28;20079;-71
2023/05/16 01:51:29;;;;;;;3.45;2.80;;;20.70;40.80;;;;;;5054433;28;20107;-71
2023/05/16 01:54:00;;;;;;;3.13;2.80;;;20.70;40.70;;;;;;5053872;28;20033;-71
2023/05/16 01:56:28;;;;;;;3.53;2.58;;;20.70;40.70;;;;;;5054237;28;20028;-71
2023/05/16 01:58:55;;;;;;;3.55;2.65;;;20.60;40.80;;;;;;5052349;28;20029;-71
2023/05/16 02:01:22;;;;;;;3.30;2.55;;;20.60;40.80;;;;;;5053551;28;20055;-71
2023/05/16 02:03:47;;;;;;;3.78;2.90;;;20.60;40.90;;;;;;5054092;28;20031;-71
2023/05/16 02:06:13;;;;;;;3.72;2.85;;;20.60;40.90;;;;;;5053898;28;20025;-71
2023/05/16 02:08:39;;;;;;;4.80;2.97;;;20.50;40.90;;;;;;5053653;28;20076;-71
2023/05/16 02:11:04;;;;;;;4.05;2.95;;;20.50;41.00;;;;;;5053527;28;20029;-71
2023/05/16 02:13:30;;;;;;;4.47;3.17;;;20.50;41.00;;;;;;5053791;28;20079;-71
2023/05/16 02:15:56;;;;;;;5.35;3.40;;;20.50;41.10;;;;;;5053396;28;20422;-71
2023/05/16 02:18:22;;;;;;;4.05;3.13;;;20.40;41.10;;;;;;5053574;28;20025;-71
2023/05/16 02:20:48;;;;;;;4.38;3.38;;;20.40;41.10;;;;;;5053597;28;20036;-71
2023/05/16 02:23:14;;;;;;;3.53;3.08;;;20.40;41.20;;;;;;5053487;28;20044;-71
2023/05/16 02:25:40;;;;;;;3.75;3.10;;;20.40;41.20;;;;;;5053638;28;20554;-71
2023/05/16 02:28:05;;;;;;;4.45;3.30;;;20.40;41.30;;;;;;5053465;28;20052;-71
2023/05/16 02:30:32;;;;;;;4.10;3.22;;;20.40;41.30;;;;;;5053123;28;20079;-71
2023/05/16 02:32:57;;;;;;;4.30;3.38;;;20.30;41.30;;;;;;5035568;28;20075;-71
2023/05/16 02:35:23;;;;;;;5.00;3.30;;;20.30;41.30;;;;;;5053458;28;20021;-71
2023/05/16 02:37:49;;;;;;;3.63;3.15;;;20.30;41.30;;;;;;5053331;28;20033;-71
2023/05/16 02:40:15;;;;;;;6.43;3.58;;;20.30;41.40;;;;;;5053162;28;20040;-72
2023/05/16 02:42:41;;;;;;;3.30;2.97;;;20.30;41.50;;;;;;5053242;28;20460;-71
2023/05/16 02:45:07;;;;;;;4.80;3.65;;;20.30;41.50;;;;;;5059386;28;20025;-71
2023/05/16 02:47:32;;;;;;;5.45;3.60;;;20.30;41.60;;;;;;5060019;28;20029;-71
2023/05/16 02:49:58;;;;;;;4.88;3.60;;;20.30;41.50;;;;;;5059887;28;20098;-72
2023/05/16 02:52:24;;;;;;;4.93;3.67;;;20.20;41.60;;;;;;5059772;28;20028;-72
2023/05/16 02:54:49;;;;;;;4.15;3.28;;;20.20;41.60;;;;;;5058840;28;20037;-71
2023/05/16 02:57:15;;;;;;;5.55;3.33;;;20.20;41.70;;;;;;5058557;28;20112;-71
2023/05/16 02:59:40;;;;;;;4.97;3.58;;;20.20;41.70;;;;;;5059437;28;20068;-71
2023/05/16 03:02:06;;;;;;;5.03;3.38;;;20.20;41.80;;;;;;5059772;28;20098;-71
2023/05/16 03:04:32;;;;;;;5.13;3.47;;;20.20;41.80;;;;;;5059121;28;20431;-71
2023/05/16 03:06:59;;;;;;;5.75;3.83;;;20.20;41.90;;;;;;5058976;28;20110;-72
2023/05/16 03:09:25;;;;;;;4.43;3.40;;;20.20;42.50;;;;;;5059052;28;20044;-71
2023/05/16 03:11:50;;;;;;;5.13;3.42;;;20.20;41.90;;;;;;5057790;28;20025;-71
2023/05/16 03:14:16;;;;;;;5.70;3.20;;;20.20;42.00;;;;;;5059470;28;20031;-71
2023/05/16 03:16:42;;;;;;;5.78;3.50;;;20.20;41.90;;;;;;5059683;28;20025;-71
2023/05/16 03:19:09;;;;;;;4.80;3.72;;;20.20;42.00;;;;;;5059647;28;20064;-71
2023/05/16 03:21:34;;;;;;;8.25;3.75;;;20.20;42.00;;;;;;5059637;28;20151;-71
2023/05/16 03:24:02;;;;;;;5.88;3.63;;;20.20;42.00;;;;;;5059729;28;20120;-71
2023/05/16 03:26:28;;;;;;;6.20;3.95;;;20.30;42.00;;;;;;5059590;28;20025;-71
2023/05/16 03:28:54;;;;;;;6.53;3.85;;;20.30;42.10;;;;;;5059699;28;20021;-71
2023/05/16 03:31:19;;;;;;;7.25;3.70;;;20.30;42.10;;;;;;5057281;28;20053;-71
2023/05/16 03:33:45;;;;;;;6.72;3.70;;;20.30;42.10;;;;;;5058817;28;20021;-71
2023/05/16 03:36:11;;;;;;;5.72;4.13;;;20.30;42.00;;;;;;5058572;28;20029;-71
2023/05/16 03:38:37;;;;;;;6.60;4.57;;;20.30;42.10;;;;;;5058663;28;20033;-71
2023/05/16 03:41:02;;;;;;;8.98;5.60;;;20.30;42.10;;;;;;5059185;28;20033;-71
2023/05/16 03:43:28;;;;;;;7.75;5.32;;;20.40;42.20;;;;;;5059226;28;20104;-71
2023/05/16 03:45:54;;;;;;;11.02;5.90;;;20.40;42.20;;;;;;5059410;28;20517;-71
2023/05/16 03:48:20;;;;;;;8.77;5.70;;;20.40;42.20;;;;;;5059445;28;20363;-71
2023/05/16 03:50:46;;;;;;;9.45;6.63;;;20.40;42.20;;;;;;5059209;28;20029;-71
2023/05/16 03:53:12;;;;;;;10.20;6.70;;;20.50;42.30;;;;;;5052202;28;20026;-71
2023/05/16 03:55:38;;;;;;;11.55;6.35;;;20.50;42.20;;;;;;5035219;28;20025;-71
2023/05/16 03:58:04;;;;;;;8.40;6.28;;;20.50;42.20;;;;;;5036069;28;20100;-71
2023/05/16 04:00:29;;;;;;;10.45;7.75;;;20.60;42.30;;;;;;5039529;28;20079;-71
2023/05/16 04:02:55;;;;;;;10.15;7.28;;;20.60;42.30;;;;;;5046135;28;20029;-72
2023/05/16 04:05:21;;;;;;;12.07;7.18;;;20.70;42.20;;;;;;5044395;28;20021;-71
2023/05/16 04:07:47;;;;;;;10.20;6.82;;;20.70;42.20;;;;;;5044797;28;20029;-72
2023/05/16 04:10:13;;;;;;;10.55;6.90;;;20.80;42.20;;;;;;5044533;28;20052;-72
2023/05/16 04:12:39;;;;;;;11.30;6.95;;;20.90;42.20;;;;;;5047284;28;20108;-72
2023/05/16 04:15:05;;;;;;;10.38;6.60;;;20.90;42.00;;;;;;5044068;28;20450;-71
2023/05/16 04:17:31;;;;;;;8.27;6.22;;;21.00;41.90;;;;;;5034864;28;20037;-74
2023/05/16 04:19:57;;;;;;;11.15;6.35;;;21.10;41.90;;;;;;5035949;28;20034;-71
2023/05/16 04:22:23;;;;;;;9.23;5.70;;;21.10;41.90;;;;;;5036076;28;20018;-69
2023/05/16 04:24:49;;;;;;;7.75;5.68;;;21.20;41.90;;;;;;5036053;28;20100;-73
2023/05/16 04:27:15;;;;;;;9.52;6.45;;;21.20;41.90;;;;;;5035622;28;20072;-73
2023/05/16 04:29:41;;;;;;;9.25;5.53;;;21.30;42.00;;;;;;5036152;28;20124;-74
2023/05/16 04:32:07;;;;;;;10.30;5.88;;;21.30;41.90;;;;;;5039653;28;20563;-73
2023/05/16 04:34:36;;;;;;;8.55;5.68;;;21.40;41.90;;;;;;5046031;28;20075;-73
2023/05/16 04:37:04;;;;;;;10.15;5.47;;;21.40;41.90;;;;;;5044457;28;20075;-73
2023/05/16 04:39:31;;;;;;;9.98;6.05;;;21.50;41.80;;;;;;5042501;28;20029;-73
2023/05/16 04:42:00;;;;;;;8.80;6.05;;;21.50;41.70;;;;;;5043392;28;20363;-73
2023/05/16 04:44:25;;;;;;;8.95;5.80;;;21.50;41.70;;;;;;5051190;28;20040;-72
2023/05/16 04:46:52;;;;;;;10.43;5.95;;;21.60;41.70;;;;;;5055335;28;20029;-73
2023/05/16 04:49:18;;;;;;;10.25;5.57;;;21.60;41.60;;;;;;5055412;28;20094;-76
2023/05/16 04:51:44;;;;;;;9.73;6.15;;;21.60;41.60;;;;;;5054170;28;20025;-73
2023/05/16 04:54:09;;;;;;;7.57;5.15;;;21.60;41.60;;;;;;5055026;28;20033;-74
2023/05/16 04:56:35;;;;;;;9.23;5.78;;;21.70;41.60;;;;;;5055289;28;20493;-73
2023/05/16 04:59:03;;;;;;;8.93;5.18;;;21.70;41.50;;;;;;5054955;28;20131;-74
2023/05/16 05:01:28;;;;;;;9.73;5.15;;;21.70;41.50;;;;;;5055076;28;20025;-73
2023/05/16 05:03:54;;;;;;;8.50;5.05;;;21.70;41.50;;;;;;5055214;28;20036;-73
2023/05/16 05:06:20;;;;;;;7.63;4.93;;;21.70;41.40;;;;;;5054703;28;20116;-76
2023/05/16 05:08:46;;;;;;;6.72;4.15;;;21.80;41.50;;;;;;5054790;28;20375;-74
2023/05/16 05:11:11;;;;;;;9.90;4.32;;;21.80;41.40;;;;;;5054646;28;20025;-75
2023/05/16 05:13:37;;;;;;;6.30;4.28;;;21.80;41.40;;;;;;5055170;28;20037;-72
2023/05/16 05:16:03;;;;;;;5.40;3.60;;;21.80;41.40;;;;;;5054578;28;20458;-74
2023/05/16 05:18:29;;;;;;;6.78;4.10;;;21.80;41.40;;;;;;5054983;28;20075;-78
2023/05/16 05:20:55;;;;;;;5.18;3.70;;;21.90;41.40;;;;;;5053130;28;20529;-74
2023/05/16 05:23:21;;;;;;;5.55;3.50;;;21.80;41.30;;;;;;5054458;28;20111;-74
2023/05/16 05:25:46;;;;;;;8.10;3.72;;;21.90;41.30;;;;;;5055025;28;20452;-74
2023/05/16 05:28:12;;;;;;;5.82;3.78;;;21.90;41.30;;;;;;5054388;28;20028;-74
2023/05/16 05:30:38;;;;;;;9.38;3.90;;;21.90;41.20;;;;;;5054094;28;20041;-75
2023/05/16 05:33:04;;;;;;;9.15;3.45;;;22.00;41.20;;;;;;5054702;28;20049;-74
2023/05/16 05:35:30;;;;;;;4.05;3.20;;;22.00;41.10;;;;;;5054674;28;20032;-74
2023/05/16 05:37:55;;;;;;;5.88;3.58;;;22.10;41.10;;;;;;5054316;28;20536;-75
2023/05/16 05:43:43;;;;;;;5.43;3.35;;;22.20;41.00;;;;;;5063417;28;20024;-74
2023/05/16 05:46:09;;;;;;;6.88;3.10;;;22.20;40.90;;;;;;5034168;28;20030;-74
2023/05/16 05:48:35;;;;;;;7.20;3.20;;;22.20;40.90;;;;;;5033741;28;20040;-74
2023/05/16 05:51:01;;;;;;;6.05;2.63;;;22.30;40.80;;;;;;5033234;28;20124;-74
2023/05/16 05:53:26;;;;;;;5.32;2.90;;;22.30;40.70;;;;;;5034568;28;20018;-73
2023/05/16 05:55:52;;;;;;;4.10;2.80;;;22.30;40.70;;;;;;5034004;28;20026;-74
2023/05/16 05:58:19;;;;;;;3.67;2.92;;;22.30;40.70;;;;;;5034280;28;20068;-74
2023/05/16 06:00:45;;;;;;;6.18;2.60;;;22.30;40.60;;;;;;5032738;28;20551;-74
2023/05/16 06:03:10;;;;;;;6.38;3.00;;;22.40;40.70;;;;;;5033921;28;20152;-73
2023/05/16 06:05:36;;;;;;;6.50;2.85;;;22.40;40.60;;;;;;5034278;28;20028;-74
2023/05/16 06:08:02;;;;;;;3.85;2.97;;;22.30;40.60;;;;;;5033225;28;20051;-74
2023/05/16 06:10:27;;;;;;;2.95;2.50;;;22.30;40.50;;;;;;5033873;28;20119;-75
2023/05/16 06:12:53;;;;;;;4.07;2.60;;;22.40;40.60;;;;;;5033837;28;20033;-74
2023/05/16 06:15:18;;;;;;;5.45;2.50;;;22.30;40.50;;;;;;5034066;28;20116;-74
2023/05/16 06:17:44;;;;;;;4.85;2.72;;;22.40;40.60;;;;;;5033481;28;20029;-74
2023/05/16 06:20:10;;;;;;;3.80;2.53;;;22.40;40.60;;;;;;5033504;28;20464;-74
2023/05/16 06:22:36;;;;;;;5.95;2.75;;;22.40;40.80;;;;;;5034158;28;20109;-74
2023/05/16 06:25:01;;;;;;;3.30;2.70;;;22.40;40.50;;;;;;5034262;28;20443;-74
2023/05/16 06:27:27;;;;;;;3.97;2.55;;;22.40;40.50;;;;;;5032596;28;20029;-74
2023/05/16 06:29:53;;;;;;;4.53;2.58;;;22.40;40.40;;;;;;5033808;28;20075;-74
2023/05/16 06:32:18;;;;;;;4.00;2.58;;;22.50;40.40;;;;;;5033466;28;20085;-74
2023/05/16 06:34:44;;;;;;;2.72;2.45;;;22.50;40.40;;;;;;5033455;28;20022;-74
2023/05/16 06:37:10;;;;;;;2.72;2.40;;;22.50;40.40;;;;;;5033551;28;20480;-74
2023/05/16 06:39:36;;;;;;;3.08;2.30;;;22.60;40.40;;;;;;5033647;28;20057;-75
2023/05/16 06:42:01;;;;;;;2.92;2.28;;;22.60;40.40;;;;;;5033739;28;20460;-74
2023/05/16 06:44:27;;;;;;;3.70;2.33;;;22.70;40.40;;;;;;5033647;28;20112;-74
2023/05/16 06:46:52;;;;;;;2.55;2.35;;;22.80;40.40;;;;;;5033296;28;20523;-74
2023/05/16 06:49:18;;;;;;;3.08;2.50;;;22.80;40.30;;;;;;5033591;28;20395;-74
2023/05/16 06:51:44;;;;;;;3.80;2.58;;;22.90;40.30;;;;;;5033372;28;20032;-74
2023/05/16 06:54:10;;;;;;;4.95;2.45;;;22.90;40.20;;;;;;5033618;28;20033;-74
2023/05/16 06:56:35;;;;;;;3.63;2.38;;;22.90;40.10;;;;;;5033359;28;20025;-74
2023/05/16 06:59:01;;;;;;;4.05;2.35;;;23.00;40.10;;;;;;5033409;28;20420;-73
2023/05/16 07:01:27;;;;;;;2.85;2.22;;;23.00;40.10;;;;;;5033068;28;20108;-74
2023/05/16 07:03:52;;;;;;;2.80;2.53;;;23.00;40.10;;;;;;5031907;28;20032;-73
2023/05/16 07:06:18;;;;;;;4.95;2.28;;;23.10;40.10;;;;;;5033257;28;20075;-74
2023/05/16 07:08:44;;;;;;;3.72;2.50;;;23.00;40.00;;;;;;5033323;28;20040;-74
2023/05/16 07:11:10;;;;;;;2.45;2.25;;;23.00;40.00;;;;;;5032147;28;20030;-74
2023/05/16 07:13:36;;;;;;;2.65;2.38;;;23.00;40.00;;;;;;5033319;28;20029;-74
2023/05/16 07:16:02;;;;;;;2.97;2.20;;;23.00;40.00;;;;;;5033301;28;20048;-74
2023/05/16 07:18:28;;;;;;;3.53;2.50;;;23.00;40.00;;;;;;5033556;28;20444;-74
2023/05/16 07:20:53;;;;;;;4.20;2.33;;;23.00;40.00;;;;;;5032969;28;20037;-74
2023/05/16 07:23:19;;;;;;;2.92;2.25;;;23.00;40.00;;;;;;5033265;28;20049;-74
2023/05/16 07:25:45;;;;;;;2.28;2.08;;;22.90;40.00;;;;;;5032927;28;20029;-74
2023/05/16 07:28:10;;;;;;;2.45;2.17;;;22.90;40.00;;;;;;5031920;28;20120;-74
2023/05/16 07:30:36;;;;;;;2.58;2.20;;;22.90;40.00;;;;;;5033844;28;20033;-74
2023/05/16 07:33:02;;;;;;;3.38;2.20;;;22.90;40.00;;;;;;5035521;28;20526;-74
2023/05/16 07:35:28;;;;;;;4.32;2.80;;;23.00;40.00;;;;;;5037048;28;20116;-75
2023/05/16 07:37:53;;;;;;;2.25;2.05;;;23.00;40.00;;;;;;5035467;28;20439;-74
2023/05/16 07:40:24;;;;;;;2.60;2.35;;;23.00;40.00;;;;;;5036769;28;20383;-73
2023/05/16 07:42:50;;;;;;;4.97;2.88;;;23.10;40.00;;;;;;5036770;28;20021;-74
2023/05/16 07:45:16;;;;;;;3.25;2.40;;;23.10;39.90;;;;;;5036688;28;20032;-74
2023/05/16 07:47:41;;;;;;;2.92;2.30;;;23.10;39.90;;;;;;5035694;28;20026;-74
2023/05/16 07:50:07;;;;;;;3.03;2.30;;;23.10;39.90;;;;;;5036503;28;20029;-74
2023/05/16 07:52:33;;;;;;;4.20;2.35;;;23.10;39.90;;;;;;5036658;28;20059;-74
2023/05/16 07:54:59;;;;;;;4.93;1.90;;;23.10;39.90;;;;;;5036551;28;20032;-74
2023/05/16 07:57:24;;;;;;;5.72;2.30;;;23.00;39.90;;;;;;5034839;28;20108;-74
2023/05/16 07:59:51;;;;;;;6.53;2.50;;;23.00;40.00;;;;;;5036070;28;20464;-74
2023/05/16 08:02:16;;;;;;;5.82;2.70;;;23.00;40.40;;;;;;5036356;28;20079;-74
2023/05/16 08:04:42;;;;;;;4.25;2.40;;;22.90;40.10;;;;;;5036586;28;20026;-74
2023/05/16 08:07:08;;;;;;;4.80;2.42;;;22.90;40.20;;;;;;5036078;28;20511;-74
2023/05/16 08:09:34;;;;;;;3.58;2.22;;;22.80;40.30;;;;;;5036243;28;20037;-74
2023/05/16 08:12:02;;;;;;;4.68;2.50;;;22.80;40.30;;;;;;5036355;28;20378;-74
2023/05/16 08:14:30;;;;;;;3.10;2.30;;;22.80;40.40;;;;;;5036404;28;20033;-74
2023/05/16 08:17:00;;;;;;;4.45;2.30;;;22.70;40.40;;;;;;5036089;28;20029;-74
2023/05/16 08:19:26;;;;;;;4.65;2.40;;;22.70;40.50;;;;;;5036098;28;20524;-74
2023/05/16 08:21:51;;;;;;;2.70;2.20;;;22.70;40.50;;;;;;5035985;28;20026;-74
2023/05/16 08:24:17;;;;;;;4.03;2.15;;;22.60;40.50;;;;;;5034585;28;20022;-74
2023/05/16 08:26:43;;;;;;;4.18;2.20;;;22.60;40.60;;;;;;5035888;28;20029;-74
2023/05/16 08:29:08;;;;;;;5.05;2.30;;;22.60;40.70;;;;;;5036189;28;20456;-74
2023/05/16 08:31:34;;;;;;;6.30;2.22;;;22.60;40.70;;;;;;5035881;28;20053;-73
2023/05/16 08:34:01;;;;;;;5.13;2.28;;;22.50;40.70;;;;;;5035763;28;20049;-73
2023/05/16 08:36:27;;;;;;;3.28;2.40;;;22.50;40.70;;;;;;5035598;28;20431;-74
2023/05/16 08:38:53;;;;;;;3.40;2.50;;;22.50;40.70;;;;;;5035488;28;20036;-74
2023/05/16 08:41:20;;;;;;;3.83;2.45;;;22.50;40.70;;;;;;5035021;28;20124;-74
2023/05/16 08:43:46;;;;;;;4.07;2.35;;;22.60;40.80;;;;;;5035627;28;20029;-74
2023/05/16 08:46:12;;;;;;;3.72;2.25;;;22.50;40.70;;;;;;5035881;28;20025;-74
2023/05/16 08:48:40;;;;;;;3.80;2.50;;;22.50;40.70;;;;;;5035348;28;20420;-74
2023/05/16 08:51:09;;;;;;;5.32;2.40;;;22.60;40.80;;;;;;5035534;28;20061;-74
2023/05/16 08:53:48;;;;;;;3.58;2.40;;;22.60;40.70;;;;;;5035410;28;20087;-74
2023/05/16 08:56:16;;;;;;;3.80;2.72;;;22.60;40.70;;;;;;5034185;28;20078;-74
2023/05/16 08:58:41;;;;;;;4.65;2.53;;;22.60;40.70;;;;;;5035445;28;20036;-73
2023/05/16 09:01:08;;;;;;;7.55;2.65;;;22.70;40.60;;;;;;5034161;28;20029;-73
2023/05/16 09:03:38;;;;;;;4.05;2.60;;;22.70;40.50;;;;;;5035067;28;20025;-75
2023/05/16 09:06:05;;;;;;;6.07;2.80;;;22.80;40.50;;;;;;5035267;28;20040;-75
2023/05/16 09:08:31;;;;;;;3.97;2.42;;;22.80;40.50;;;;;;5034876;28;20371;-75
2023/05/16 09:10:56;;;;;;;3.58;2.60;;;22.80;40.40;;;;;;5034077;28;20033;-75
2023/05/16 09:13:24;;;;;;;2.95;2.38;;;22.80;40.40;;;;;;5035271;28;20025;-75
2023/05/16 09:16:19;;;;;;;3.30;2.38;;;22.90;40.40;;;;;;5033979;28;20060;-75
2023/05/16 09:18:51;;;;;;;3.28;2.60;;;22.90;40.40;;;;;;5033543;28;20048;-75
2023/05/16 09:21:18;;;;;;;2.63;2.40;;;22.90;40.40;;;;;;5033643;28;20475;-75
2023/05/16 09:23:43;;;;;;;4.05;2.25;;;22.90;40.40;;;;;;5033500;28;20105;-75
2023/05/16 09:26:09;;;;;;;3.47;2.58;;;22.90;40.30;;;;;;5034756;28;20025;-75
2023/05/16 09:28:38;;;;;;;3.25;2.15;;;22.90;40.30;;;;;;5034738;28;20033;-75
2023/05/16 09:31:19;;;;;;;3.80;2.38;;;22.90;40.30;;;;;;5033260;28;20107;-76
2023/05/16 09:33:44;;;;;;;2.42;2.17;;;22.90;40.30;;;;;;5034208;28;20025;-74
2023/05/16 09:36:10;;;;;;;3.83;2.50;;;22.90;40.30;;;;;;5034640;28;20113;-74
2023/05/16 09:38:37;;;;;;;2.88;2.28;;;22.90;40.30;;;;;;5034873;28;20418;-74
2023/05/16 09:41:02;;;;;;;3.55;2.22;;;22.90;40.30;;;;;;5034317;28;20029;-74
2023/05/16 09:43:28;;;;;;;2.60;2.15;;;22.90;40.20;;;;;;5034457;28;20033;-74
2023/05/16 09:45:54;;;;;;;4.88;2.38;;;22.90;40.20;;;;;;5034459;28;20097;-73
2023/05/16 09:48:21;;;;;;;4.05;2.25;;;22.90;40.20;;;;;;5034967;28;20025;-74
2023/05/16 09:50:52;;;;;;;2.78;2.10;;;22.90;40.20;;;;;;5033116;28;20033;-74
2023/05/16 09:53:28;;;;;;;2.97;2.30;;;22.90;40.20;;;;;;5033112;28;20109;-74
2023/05/16 09:56:02;;;;;;;4.05;2.20;;;22.90;40.20;;;;;;5032822;28;20021;-74
2023/05/16 09:58:31;;;;;;;3.75;2.33;;;22.90;40.20;;;;;;5032737;28;20414;-74
2023/05/16 10:00:58;;;;;;;3.08;2.30;;;22.90;40.30;;;;;;5034058;28;20037;-74
2023/05/16 10:03:25;;;;;;;2.90;2.30;;;23.00;40.30;;;;;;5032927;28;20034;-74
2023/05/16 10:05:51;;;;;;;2.28;1.90;;;23.00;40.20;;;;;;5033021;28;20025;-74
2023/05/16 10:08:20;;;;;;;2.45;2.10;;;23.00;40.20;;;;;;5032627;28;20022;-74
2023/05/16 10:10:52;;;;;;;2.22;1.98;;;23.00;40.20;;;;;;5034104;28;20459;-75
2023/05/16 10:13:22;;;;;;;3.35;2.17;;;23.10;40.30;;;;;;5034116;28;20036;-74
2023/05/16 10:15:54;;;;;;;2.17;1.98;;;23.00;40.20;;;;;;5033204;28;20021;-74
2023/05/16 10:18:21;;;;;;;2.53;2.00;;;23.10;40.20;;;;;;5032970;28;20460;-75
2023/05/16 10:20:52;;;;;;;3.67;2.00;;;23.10;40.20;;;;;;5032563;28;20068;-75
2023/05/16 10:23:20;;;;;;;2.88;2.30;;;23.10;40.20;;;;;;5033933;28;20036;-75
2023/05/16 10:25:47;;;;;;;2.20;2.00;;;23.10;40.20;;;;;;5033703;28;20035;-75
2023/05/16 10:28:15;;;;;;;3.13;2.22;;;23.10;40.20;;;;;;5033631;28;20472;-75
2023/05/16 10:30:43;;;;;;;2.85;2.20;;;23.10;40.20;;;;;;5033533;28;20037;-75
2023/05/16 10:33:14;;;;;;;2.45;2.20;;;23.20;40.20;;;;;;5033575;28;20053;-75
2023/05/16 10:35:40;;;;;;;2.47;2.28;;;23.20;40.10;;;;;;5031827;28;20434;-75
2023/05/16 10:38:11;;;;;;;2.83;2.20;;;23.20;40.10;;;;;;5032979;28;20037;-75
2023/05/16 10:40:38;;;;;;;2.53;2.10;;;23.20;40.10;;;;;;5033358;28;20059;-75
2023/05/16 10:43:05;;;;;;;2.42;2.10;;;23.20;40.10;;;;;;5033170;28;20029;-75
2023/05/16 10:45:31;;;;;;;3.10;2.08;;;23.20;40.10;;;;;;5033275;28;20097;-74
2023/05/16 10:47:59;;;;;;;2.00;1.80;;;23.20;40.00;;;;;;5033465;28;20126;-74
2023/05/16 10:50:34;;;;;;;2.38;2.10;;;23.20;40.00;;;;;;5032020;28;20033;-75
2023/05/16 10:53:21;;;;;;;3.25;2.22;;;23.30;40.10;;;;;;5033463;28;20114;-73
2023/05/16 10:56:07;;;;;;;2.58;2.30;;;23.30;40.00;;;;;;5033054;28;20439;-75
2023/05/16 10:58:39;;;;;;;3.17;2.17;;;23.30;39.90;;;;;;5031807;28;20056;-74
2023/05/16 11:01:23;;;;;;;4.25;2.33;;;23.30;39.90;;;;;;5032762;28;20083;-75
2023/05/16 11:04:00;;;;;;;2.33;1.95;;;23.30;39.80;;;;;;5033395;28;20110;-75
2023/05/16 11:06:31;;;;;;;2.58;2.00;;;23.20;40.40;;;;;;5037586;28;20439;-75
2023/05/16 11:09:05;;;;;;;2.72;2.08;;;23.30;39.80;;;;;;5037203;28;20025;-73
2023/05/16 11:11:37;;;;;;;1.95;1.85;;;23.30;39.80;;;;;;5037053;28;20033;-75
2023/05/16 11:14:03;;;;;;;2.35;2.03;;;23.30;39.80;;;;;;5036913;28;20025;-75
2023/05/16 11:16:29;;;;;;;2.80;1.83;;;23.30;39.80;;;;;;5037204;28;20420;-75
2023/05/16 11:19:06;;;;;;;2.90;1.80;;;23.30;39.80;;;;;;5035399;28;20389;-75
2023/05/16 11:22:06;;;;;;;3.05;2.10;;;23.30;39.80;;;;;;5035455;28;20060;-75
2023/05/16 11:24:34;;;;;;;2.30;2.10;;;23.30;39.70;;;;;;5037197;28;20022;-75
2023/05/16 11:27:00;;;;;;;4.60;1.88;;;23.30;39.70;;;;;;5036774;28;20029;-73
2023/05/16 11:29:28;;;;;;;4.18;2.30;;;23.30;39.80;;;;;;5036600;28;20120;-74
2023/05/16 11:31:53;;;;;;;2.08;1.88;;;23.40;39.70;;;;;;5037009;28;20091;-75
2023/05/16 11:34:19;;;;;;;3.50;2.30;;;23.40;39.70;;;;;;5036556;28;20033;-75
2023/05/16 11:36:45;;;;;;;2.15;1.95;;;23.50;39.70;;;;;;5036593;28;20068;-75
2023/05/16 11:39:11;;;;;;;3.47;1.75;;;23.50;39.60;;;;;;5035285;28;20064;-74
2023/05/16 11:41:37;;;;;;;3.05;1.90;;;23.60;39.60;;;;;;5036799;28;20028;-73
2023/05/16 11:44:05;;;;;;;2.92;2.00;;;23.60;39.50;;;;;;5035134;28;20029;-74
2023/05/16 11:46:33;;;;;;;2.25;2.00;;;23.60;39.50;;;;;;5036226;28;20029;-74
2023/05/16 11:48:59;;;;;;;2.28;2.08;;;23.70;39.50;;;;;;5036185;28;20025;-74
2023/05/16 11:51:24;;;;;;;2.10;1.88;;;23.70;39.40;;;;;;5036492;28;20429;-74
2023/05/16 11:53:50;;;;;;;2.58;2.00;;;23.70;39.40;;;;;;5036494;28;20025;-74
2023/05/16 11:56:17;;;;;;;2.72;2.10;;;23.70;39.40;;;;;;5036583;28;20029;-74
2023/05/16 11:58:43;;;;;;;2.88;1.92;;;23.70;39.40;;;;;;5036290;28;20021;-74
2023/05/16 12:01:10;;;;;;;3.08;1.92;;;23.70;39.40;;;;;;5034719;28;20030;-74
2023/05/16 12:03:37;;;;;;;1.98;1.77;;;23.60;39.40;;;;;;5035730;28;20404;-74
2023/05/16 12:06:03;;;;;;;2.92;1.83;;;23.60;39.40;;;;;;5036201;28;20026;-74
2023/05/16 12:08:29;;;;;;;2.00;1.67;;;23.60;39.40;;;;;;5034721;28;20364;-74
2023/05/16 12:10:55;;;;;;;1.73;1.63;;;23.60;39.40;;;;;;5035831;28;20099;-73
2023/05/16 12:13:22;;;;;;;1.75;1.65;;;23.60;39.40;;;;;;5035647;28;20025;-74
2023/05/16 12:15:50;;;;;;;1.77;1.65;;;23.60;39.40;;;;;;5033856;28;20030;-73
2023/05/16 12:18:16;;;;;;;2.17;1.70;;;23.60;39.40;;;;;;5035781;28;20030;-73
2023/05/16 12:20:44;;;;;;;3.67;1.80;;;23.60;39.30;;;;;;5034271;28;20029;-73
2023/05/16 12:23:12;;;;;;;2.00;1.80;;;23.60;39.30;;;;;;5035784;28;20438;-73
2023/05/16 12:25:44;;;;;;;2.30;1.80;;;23.70;39.20;;;;;;5035532;28;20057;-74
2023/05/16 12:28:12;;;;;;;2.78;1.80;;;23.70;39.20;;;;;;5035756;28;20025;-74
2023/05/16 12:30:41;;;;;;;3.65;2.00;;;23.80;39.20;;;;;;5035549;28;20048;-74
2023/05/16 12:33:10;;;;;;;2.22;1.80;;;23.90;39.20;;;;;;5035616;28;20085;-74
2023/05/16 12:35:38;;;;;;;1.98;1.65;;;23.90;39.00;;;;;;5035479;28;20534;-74
2023/05/16 12:38:06;;;;;;;3.22;1.77;;;23.90;39.00;;;;;;5035863;28;20032;-74
2023/05/16 12:40:32;;;;;;;4.75;1.90;;;24.00;39.00;;;;;;5035430;28;20029;-74
2023/05/16 12:42:58;;;;;;;2.10;1.83;;;24.00;38.90;;;;;;5035262;28;20155;-74
2023/05/16 12:45:27;;;;;;;2.13;1.80;;;24.10;38.90;;;;;;5035250;28;20029;-74
2023/05/16 12:47:52;;;;;;;1.67;1.58;;;24.10;38.90;;;;;;5035069;28;20072;-74
2023/05/16 12:50:19;;;;;;;2.35;1.95;;;24.10;38.80;;;;;;5035206;28;20081;-74